Terminal Aerodrome Forecast
Issued by NWS

Home | Current Version | Previous Version | Text Only | Print | Product List | Glossary On
Versions: 1 2 3 4 5 6 7 8 9 10 11 12 13 14 15 16 17 18 19 20 21 22 23 24 25 26 27 28
000
FTUS41 KOKX 260840 AAA
TAFHPN
TAF AMD
KHPN 260840Z 2609/2706 21005KT P6SM SCT060 SCT100
      TEMPO 2609/2613 6SM BR BKN010
     FM261400 28007KT P6SM FEW030 SCT250
     FM261900 31008KT P6SM FEW050
     FM270000 33005KT P6SM SKC
      AMD NOT SKED=

USA.gov is the U.S. government's official web portal to all federal, state and local government web resources and services.